»·PEaware :: N326AL KEUG-KOTH

N326AL :: KEUG-KOTH

FLIGHT INFORMATION

Flight Status: Arrived
Operator: Privately registered:
United States
More flights under this callsign
Pilot: Erik S. (3779)
Aircraft: BEECH AIRCRAFT BARON
(BE58)
More flights by this aircraft type
Origin: KEUG Mahlon Sweet
United States
Destination: KOTH North Bend Mun
United States
More flights between these airports :: More routes between these airports
Route: +EUG9 VAUGN V121 OTH
File this flight plan on PilotEdge
Remarks:
Altitude:
(Current/Filed)
6,000ft
Speed:
(Current/Filed)
190kts
Departed: 25-Oct-17 07:42 AM
Arrived: 25-Oct-17 08:24 AM
Distance/Time
Traveled:
61nm/0:42
Distance/Time
To Go:
Arrived

Flight Plot

Page will automatically refresh every two minutes.

Flight plan parsing failed; only flown route is shown


Map Options




Map Legend


Flown Route
Filed Route
Departure Airport
Arrival Airport
Navaid (VOR, NDB)
Fix

Horizontal Profiles

Position Reports

Time Latitude Longitude Heading Altitude Ground
Speed
25-Oct-17 07:29 44.114995 -123.215745 2 375ft 0kts
25-Oct-17 07:30 44.114995 -123.215745 2 375ft 0kts
25-Oct-17 07:31 44.114995 -123.215745 2 375ft 0kts
25-Oct-17 07:32 44.114995 -123.215745 2 375ft 0kts
25-Oct-17 07:33 44.114995 -123.215745 2 375ft 0kts
25-Oct-17 07:34 44.114995 -123.215745 2 375ft 0kts
25-Oct-17 07:35 44.114995 -123.215745 2 375ft 0kts
25-Oct-17 07:36 44.114995 -123.215745 2 375ft 0kts
25-Oct-17 07:37 44.114995 -123.215745 2 375ft 0kts
25-Oct-17 07:38 44.114995 -123.215745 2 375ft 0kts
25-Oct-17 07:39 44.114995 -123.215745 2 375ft 0kts
25-Oct-17 07:40 44.114995 -123.215745 2 375ft 0kts
25-Oct-17 07:41 44.114995 -123.215745 2 375ft 0kts
25-Oct-17 07:42 44.115008 -123.215744 2 375ft 0kts
25-Oct-17 07:43 44.116895 -123.216968 357 375ft 19kts
25-Oct-17 07:44 44.123802 -123.217063 0 375ft 17kts
25-Oct-17 07:45 44.131178 -123.217136 359 375ft 26kts
25-Oct-17 07:46 44.135294 -123.217572 275 375ft 7kts
25-Oct-17 07:47 44.124702 -123.218975 179 508ft 121kts
25-Oct-17 07:48 44.092891 -123.219056 177 2649ft 124kts
25-Oct-17 07:49 44.059895 -123.217813 178 4485ft 123kts
25-Oct-17 07:50 44.037698 -123.242855 262 5988ft 125kts
25-Oct-17 07:51 44.025850 -123.303825 253 6058ft 189kts
25-Oct-17 07:52 44.008139 -123.375268 252 6055ft 197kts
25-Oct-17 07:53 43.971989 -123.433640 228 6055ft 201kts
25-Oct-17 07:54 43.932890 -123.489658 227 6055ft 202kts
25-Oct-17 07:55 43.893650 -123.545268 227 6055ft 202kts
25-Oct-17 07:56 43.854340 -123.600729 227 6055ft 202kts
25-Oct-17 07:57 43.814800 -123.656386 227 6048ft 204kts
25-Oct-17 07:58 43.774640 -123.712774 226 6040ft 207kts
25-Oct-17 07:59 43.733752 -123.770077 225 6034ft 210kts
25-Oct-17 08:00 43.693365 -123.826538 224 6026ft 196kts
25-Oct-17 08:01 43.667764 -123.889999 245 6026ft 189kts
25-Oct-17 08:02 43.647345 -123.956921 245 6026ft 188kts
25-Oct-17 08:03 43.626989 -124.023630 245 6026ft 188kts
25-Oct-17 08:04 43.606613 -124.090417 245 6026ft 188kts
25-Oct-17 08:05 43.586261 -124.157041 245 6027ft 188kts
25-Oct-17 08:06 43.565826 -124.223907 245 6027ft 188kts
25-Oct-17 08:07 43.545469 -124.290527 245 6026ft 188kts
25-Oct-17 08:08 43.525126 -124.357108 245 6026ft 188kts
25-Oct-17 08:09 43.503368 -124.426924 244 5102ft 207kts
25-Oct-17 08:10 43.480991 -124.497964 244 4102ft 200kts
25-Oct-17 08:11 43.447119 -124.547220 168 3340ft 187kts
25-Oct-17 08:12 43.405638 -124.509095 146 3043ft 159kts
25-Oct-17 08:13 43.373024 -124.478080 146 2921ft 130kts
25-Oct-17 08:14 43.361883 -124.435638 89 2925ft 134kts
25-Oct-17 08:15 43.366077 -124.384695 76 2643ft 142kts
25-Oct-17 08:16 43.384532 -124.337588 65 1241ft 131kts
25-Oct-17 08:17 43.398918 -124.299093 66 820ft 113kts
25-Oct-17 08:18 43.414076 -124.261625 67 381ft 113kts
25-Oct-17 08:19 43.433356 -124.262863 234 2413ft 129kts
25-Oct-17 08:20 43.412709 -124.310754 254 3117ft 181kts
25-Oct-17 08:21 43.398727 -124.383677 255 2787ft 200kts
25-Oct-17 08:22 43.384436 -124.456979 255 2788ft 198kts
25-Oct-17 08:23 43.360640 -124.518549 181 2780ft 183kts
25-Oct-17 08:24 43.345108 -124.467471 85 2788ft 163kts
25-Oct-17 08:25 43.354296 -124.407948 61 2454ft 163kts
25-Oct-17 08:26 43.374315 -124.359006 60 1634ft 163kts
25-Oct-17 08:27 43.392781 -124.314081 60 923ft 116kts
25-Oct-17 08:28 43.407715 -124.277710 60 344ft 107kts
25-Oct-17 08:29 43.418035 -124.251528 143 18ft 20kts
25-Oct-17 08:30 43.418674 -124.247863 61 18ft 36kts
25-Oct-17 08:31 43.417308 -124.247103 89 18ft 0kts
25-Oct-17 08:32 43.417308 -124.247103 89 18ft 0kts
25-Oct-17 08:33 43.417308 -124.247103 89 18ft 0kts
25-Oct-17 08:34 43.417308 -124.247103 89 18ft 0kts
25-Oct-17 08:35 43.417308 -124.247103 89 18ft 0kts
25-Oct-17 08:36 43.417308 -124.247103 89 18ft 0kts
25-Oct-17 08:37 43.417308 -124.247103 89 18ft 0kts
25-Oct-17 08:38 43.417308 -124.247103 89 18ft 0kts
25-Oct-17 08:39 43.417308 -124.247103 89 18ft 0kts
25-Oct-17 08:40 43.417308 -124.247103 89 18ft 0kts
25-Oct-17 08:41 43.417308 -124.247103 89 18ft 0kts
25-Oct-17 08:42 43.417308 -124.247103 89 18ft 0kts
25-Oct-17 08:43 43.417308 -124.247103 89 18ft 0kts

Navigation Log

Ident Type
Flight plan parsing failed, navigation log unavailable